This is the latest recevied weather packets stored in our database for station/object KJ4RDP-13. If no packets are shown the sender has not sent any weather packets the latest 10 day(s).
| Time | Temp. | Humidity | Pressure | Rain* | Wind** | Luminosity | Snow |
|---|---|---|---|---|---|---|---|
| 1777408489 | 22.78° C | 76% | 1017.5 hPa | 0 mm | - | 524 W/m² | - |
| 1777408184 | 22.22° C | 72% | 1017.8 hPa | 0 mm | - | 544 W/m² | - |
| 1777407879 | 22.22° C | 73% | 1017.5 hPa | 0 mm | - | 565 W/m² | - |
| 1777407578 | 20.56° C | 77% | 1017.5 hPa | 0 mm | - | 562 W/m² | - |
| 1777407277 | 21.11° C | 77% | 1017.5 hPa | 0 mm | - | 583 W/m² | - |
| 1777406971 | 21.11° C | 76% | 1017.5 hPa | 0 mm | - | 542 W/m² | - |
| 1777406671 | 21.11° C | 80% | 1017.8 hPa | 0 mm | - | 468 W/m² | - |
| 1777406367 | 21.11° C | 78% | 1017.8 hPa | 0 mm | - | 634 W/m² | - |
| 1777406067 | 20.56° C | 76% | 1017.8 hPa | 0 mm | - | 636 W/m² | - |
| 1777405764 | 20° C | 81% | 1017.8 hPa | 0 mm | - | 591 W/m² | - |
| 1777405460 | 20° C | 77% | 1018.2 hPa | 0 mm | - | 577 W/m² | - |
| 1777405158 | 19.44° C | 80% | 1018.2 hPa | 0 mm | - | 640 W/m² | - |
| 1777404855 | 18.89° C | 83% | 1017.8 hPa | 0 mm | - | 652 W/m² | - |
| 1777404553 | 20° C | 80% | 1018.5 hPa | 0 mm | - | 651 W/m² | - |
| 1777404249 | 20.56° C | 78% | 1018.5 hPa | 0 mm | - | 612 W/m² | - |
| 1777403945 | 20° C | 77% | 1018.5 hPa | 0 mm | - | 672 W/m² | - |
| 1777403644 | 19.44° C | 81% | 1018.5 hPa | 0 mm | - | 670 W/m² | - |
| 1777403344 | 18.89° C | 82% | 1018.5 hPa | 0 mm | - | 640 W/m² | - |
| 1777403039 | 18.89° C | 83% | 1018.9 hPa | 0 mm | - | 684 W/m² | - |
| 1777402734 | 18.33° C | 85% | 1018.9 hPa | 0 mm | - | 649 W/m² | - |
| 1777402430 | 18.89° C | 79% | 1019.3 hPa | 0 mm | - | 645 W/m² | - |
| 1777402128 | 18.89° C | 82% | 1019.3 hPa | 0 mm | - | 597 W/m² | - |
| 1777401824 | 17.78° C | 87% | 1018.9 hPa | 0 mm | - | 719 W/m² | - |
| 1777401523 | 17.78° C | 85% | 1018.9 hPa | 0 mm | - | 690 W/m² | - |
| 1777401219 | 17.78° C | 84% | 1018.9 hPa | 0 mm | - | 549 W/m² | - |
* Rain latest hour (hover to see other rain measurements)
** Current wind speed in m/s (hover to see current wind gust speed)